sensor_id;sensor_type;location;lat;lon;timestamp;P1;durP1;ratioP1;P2;durP2;ratioP2
69410;SDS011;56604;48.652;9.194;2023-07-31T00:00:10;13.37;;;2.60;;
69410;SDS011;56604;48.652;9.194;2023-07-31T00:02:36;8.00;;;2.30;;
69410;SDS011;56604;48.652;9.194;2023-07-31T00:05:01;3.63;;;1.90;;
69410;SDS011;56604;48.652;9.194;2023-07-31T00:07:27;4.47;;;2.37;;
69410;SDS011;56604;48.652;9.194;2023-07-31T00:09:52;10.00;;;2.33;;
69410;SDS011;56604;48.652;9.194;2023-07-31T00:12:18;4.80;;;2.20;;
69410;SDS011;56604;48.652;9.194;2023-07-31T00:14:44;3.30;;;2.20;;
69410;SDS011;56604;48.652;9.194;2023-07-31T00:17:10;3.40;;;2.20;;
69410;SDS011;56604;48.652;9.194;2023-07-31T00:19:35;2.53;;;2.33;;
69410;SDS011;56604;48.652;9.194;2023-07-31T00:22:01;2.30;;;2.00;;
69410;SDS011;56604;48.652;9.194;2023-07-31T00:24:26;2.83;;;2.20;;
69410;SDS011;56604;48.652;9.194;2023-07-31T00:26:51;4.93;;;2.60;;
69410;SDS011;56604;48.652;9.194;2023-07-31T00:29:17;10.27;;;2.40;;
69410;SDS011;56604;48.652;9.194;2023-07-31T00:31:42;3.23;;;2.23;;
69410;SDS011;56604;48.652;9.194;2023-07-31T00:34:07;2.70;;;1.93;;
69410;SDS011;56604;48.652;9.194;2023-07-31T00:36:33;14.93;;;2.03;;
69410;SDS011;56604;48.652;9.194;2023-07-31T00:38:58;5.20;;;1.93;;
69410;SDS011;56604;48.652;9.194;2023-07-31T00:41:23;4.83;;;2.53;;
69410;SDS011;56604;48.652;9.194;2023-07-31T00:43:48;1.90;;;1.80;;
69410;SDS011;56604;48.652;9.194;2023-07-31T00:46:14;3.73;;;2.30;;
69410;SDS011;56604;48.652;9.194;2023-07-31T00:48:39;3.03;;;1.90;;
69410;SDS011;56604;48.652;9.194;2023-07-31T00:51:06;3.80;;;2.43;;
69410;SDS011;56604;48.652;9.194;2023-07-31T00:53:33;4.90;;;2.20;;
69410;SDS011;56604;48.652;9.194;2023-07-31T00:55:58;11.43;;;3.17;;
69410;SDS011;56604;48.652;9.194;2023-07-31T00:58:24;4.60;;;2.30;;
69410;SDS011;56604;48.652;9.194;2023-07-31T01:00:49;6.43;;;2.10;;
69410;SDS011;56604;48.652;9.194;2023-07-31T01:03:15;7.07;;;2.63;;
69410;SDS011;56604;48.652;9.194;2023-07-31T01:13:55;4.23;;;2.10;;
69410;SDS011;56604;48.652;9.194;2023-07-31T01:16:21;3.93;;;2.00;;
69410;SDS011;56604;48.652;9.194;2023-07-31T01:18:46;2.43;;;2.13;;
69410;SDS011;56604;48.652;9.194;2023-07-31T01:26:57;9.47;;;2.37;;
69410;SDS011;56604;48.652;9.194;2023-07-31T01:29:32;4.20;;;1.67;;
69410;SDS011;56604;48.652;9.194;2023-07-31T01:32:11;3.73;;;2.30;;
69410;SDS011;56604;48.652;9.194;2023-07-31T01:34:37;5.37;;;2.30;;
69410;SDS011;56604;48.652;9.194;2023-07-31T01:37:04;7.70;;;2.77;;
69410;SDS011;56604;48.652;9.194;2023-07-31T01:39:30;3.90;;;2.10;;
69410;SDS011;56604;48.652;9.194;2023-07-31T01:41:55;2.97;;;2.33;;
69410;SDS011;56604;48.652;9.194;2023-07-31T01:44:20;4.90;;;2.40;;
69410;SDS011;56604;48.652;9.194;2023-07-31T01:46:46;7.77;;;2.37;;
69410;SDS011;56604;48.652;9.194;2023-07-31T01:49:11;3.53;;;2.27;;
69410;SDS011;56604;48.652;9.194;2023-07-31T01:51:36;3.43;;;1.87;;
69410;SDS011;56604;48.652;9.194;2023-07-31T01:54:02;4.17;;;2.27;;
69410;SDS011;56604;48.652;9.194;2023-07-31T01:56:27;3.97;;;2.03;;
69410;SDS011;56604;48.652;9.194;2023-07-31T01:58:53;5.43;;;2.47;;
69410;SDS011;56604;48.652;9.194;2023-07-31T02:01:18;5.03;;;2.27;;
69410;SDS011;56604;48.652;9.194;2023-07-31T02:03:44;6.63;;;2.20;;
69410;SDS011;56604;48.652;9.194;2023-07-31T02:06:09;2.53;;;1.97;;
69410;SDS011;56604;48.652;9.194;2023-07-31T02:08:34;5.97;;;2.43;;
69410;SDS011;56604;48.652;9.194;2023-07-31T02:10:59;9.13;;;2.20;;
69410;SDS011;56604;48.652;9.194;2023-07-31T02:13:25;8.03;;;2.60;;
69410;SDS011;56604;48.652;9.194;2023-07-31T02:15:50;6.47;;;2.60;;
69410;SDS011;56604;48.652;9.194;2023-07-31T02:18:16;5.43;;;2.03;;
69410;SDS011;56604;48.652;9.194;2023-07-31T02:20:41;3.57;;;2.30;;
69410;SDS011;56604;48.652;9.194;2023-07-31T02:23:06;7.70;;;2.83;;
69410;SDS011;56604;48.652;9.194;2023-07-31T02:25:32;2.50;;;2.30;;
69410;SDS011;56604;48.652;9.194;2023-07-31T02:27:57;7.97;;;2.70;;
69410;SDS011;56604;48.652;9.194;2023-07-31T02:30:23;4.43;;;2.80;;
69410;SDS011;56604;48.652;9.194;2023-07-31T02:32:48;2.40;;;2.20;;
69410;SDS011;56604;48.652;9.194;2023-07-31T02:35:13;11.23;;;3.10;;
69410;SDS011;56604;48.652;9.194;2023-07-31T02:37:40;3.50;;;2.33;;
69410;SDS011;56604;48.652;9.194;2023-07-31T02:40:06;3.40;;;2.20;;
69410;SDS011;56604;48.652;9.194;2023-07-31T02:42:32;3.43;;;2.57;;
69410;SDS011;56604;48.652;9.194;2023-07-31T02:44:57;2.30;;;2.10;;
69410;SDS011;56604;48.652;9.194;2023-07-31T02:47:23;4.10;;;2.57;;
69410;SDS011;56604;48.652;9.194;2023-07-31T02:49:48;2.50;;;2.30;;
69410;SDS011;56604;48.652;9.194;2023-07-31T02:52:13;3.80;;;2.63;;
69410;SDS011;56604;48.652;9.194;2023-07-31T02:54:39;3.17;;;2.37;;
69410;SDS011;56604;48.652;9.194;2023-07-31T02:57:04;13.47;;;2.53;;
69410;SDS011;56604;48.652;9.194;2023-07-31T02:59:30;2.50;;;2.30;;
69410;SDS011;56604;48.652;9.194;2023-07-31T03:01:55;2.53;;;2.33;;
69410;SDS011;56604;48.652;9.194;2023-07-31T03:04:20;6.40;;;2.17;;
69410;SDS011;56604;48.652;9.194;2023-07-31T03:06:46;5.07;;;2.53;;
69410;SDS011;56604;48.652;9.194;2023-07-31T03:09:11;5.67;;;2.50;;
69410;SDS011;56604;48.652;9.194;2023-07-31T03:11:36;3.17;;;2.07;;
69410;SDS011;56604;48.652;9.194;2023-07-31T03:14:02;3.33;;;2.13;;
69410;SDS011;56604;48.652;9.194;2023-07-31T03:16:27;3.50;;;2.67;;
69410;SDS011;56604;48.652;9.194;2023-07-31T03:18:52;3.70;;;2.43;;
69410;SDS011;56604;48.652;9.194;2023-07-31T03:21:19;2.03;;;1.80;;
69410;SDS011;56604;48.652;9.194;2023-07-31T03:23:44;9.67;;;2.30;;
69410;SDS011;56604;48.652;9.194;2023-07-31T03:26:09;6.83;;;2.33;;
69410;SDS011;56604;48.652;9.194;2023-07-31T03:28:35;9.83;;;2.97;;
69410;SDS011;56604;48.652;9.194;2023-07-31T03:31:00;6.10;;;2.20;;
69410;SDS011;56604;48.652;9.194;2023-07-31T03:33:26;10.50;;;2.40;;
69410;SDS011;56604;48.652;9.194;2023-07-31T03:35:51;2.30;;;2.10;;
69410;SDS011;56604;48.652;9.194;2023-07-31T03:38:17;5.87;;;2.73;;
69410;SDS011;56604;48.652;9.194;2023-07-31T03:40:42;5.20;;;2.20;;
69410;SDS011;56604;48.652;9.194;2023-07-31T03:43:07;3.50;;;2.10;;
69410;SDS011;56604;48.652;9.194;2023-07-31T03:45:33;5.57;;;2.00;;
69410;SDS011;56604;48.652;9.194;2023-07-31T03:47:58;2.83;;;2.23;;
69410;SDS011;56604;48.652;9.194;2023-07-31T03:50:24;6.23;;;2.33;;
69410;SDS011;56604;48.652;9.194;2023-07-31T03:52:50;6.57;;;1.80;;
69410;SDS011;56604;48.652;9.194;2023-07-31T03:55:15;5.20;;;2.17;;
69410;SDS011;56604;48.652;9.194;2023-07-31T03:57:40;7.93;;;2.67;;
69410;SDS011;56604;48.652;9.194;2023-07-31T04:00:06;2.37;;;2.17;;
69410;SDS011;56604;48.652;9.194;2023-07-31T04:02:32;9.03;;;2.50;;
69410;SDS011;56604;48.652;9.194;2023-07-31T04:04:58;4.77;;;1.90;;
69410;SDS011;56604;48.652;9.194;2023-07-31T04:07:23;8.83;;;2.13;;
69410;SDS011;56604;48.652;9.194;2023-07-31T04:09:48;5.03;;;2.50;;
69410;SDS011;56604;48.652;9.194;2023-07-31T04:12:13;3.80;;;2.10;;
69410;SDS011;56604;48.652;9.194;2023-07-31T04:14:39;3.03;;;2.30;;
69410;SDS011;56604;48.652;9.194;2023-07-31T04:17:04;5.57;;;2.10;;
69410;SDS011;56604;48.652;9.194;2023-07-31T04:19:29;3.30;;;2.40;;
69410;SDS011;56604;48.652;9.194;2023-07-31T04:21:55;5.10;;;2.33;;
69410;SDS011;56604;48.652;9.194;2023-07-31T04:24:20;3.47;;;2.30;;
69410;SDS011;56604;48.652;9.194;2023-07-31T04:26:51;4.03;;;2.23;;
69410;SDS011;56604;48.652;9.194;2023-07-31T04:29:17;3.20;;;2.20;;
69410;SDS011;56604;48.652;9.194;2023-07-31T04:31:43;2.60;;;1.80;;
69410;SDS011;56604;48.652;9.194;2023-07-31T04:34:08;6.13;;;2.30;;
69410;SDS011;56604;48.652;9.194;2023-07-31T04:36:33;6.23;;;2.27;;
69410;SDS011;56604;48.652;9.194;2023-07-31T04:39:00;2.57;;;2.33;;
69410;SDS011;56604;48.652;9.194;2023-07-31T04:41:25;2.43;;;2.23;;
69410;SDS011;56604;48.652;9.194;2023-07-31T04:43:51;4.53;;;2.30;;
69410;SDS011;56604;48.652;9.194;2023-07-31T04:46:16;12.70;;;2.40;;
69410;SDS011;56604;48.652;9.194;2023-07-31T04:48:42;3.90;;;2.60;;
69410;SDS011;56604;48.652;9.194;2023-07-31T04:51:07;6.53;;;2.13;;
69410;SDS011;56604;48.652;9.194;2023-07-31T04:53:32;2.03;;;1.60;;
69410;SDS011;56604;48.652;9.194;2023-07-31T04:55:58;2.13;;;2.03;;
69410;SDS011;56604;48.652;9.194;2023-07-31T04:58:23;3.10;;;1.80;;
69410;SDS011;56604;48.652;9.194;2023-07-31T05:00:48;3.87;;;2.00;;
69410;SDS011;56604;48.652;9.194;2023-07-31T05:03:13;2.77;;;2.07;;
69410;SDS011;56604;48.652;9.194;2023-07-31T05:05:39;5.27;;;2.00;;
69410;SDS011;56604;48.652;9.194;2023-07-31T05:08:04;2.30;;;1.73;;
69410;SDS011;56604;48.652;9.194;2023-07-31T05:10:29;3.33;;;2.10;;
69410;SDS011;56604;48.652;9.194;2023-07-31T05:12:55;1.60;;;1.50;;
69410;SDS011;56604;48.652;9.194;2023-07-31T05:15:20;15.13;;;2.13;;
69410;SDS011;56604;48.652;9.194;2023-07-31T05:17:45;3.77;;;2.50;;
69410;SDS011;56604;48.652;9.194;2023-07-31T05:20:11;4.53;;;1.90;;
69410;SDS011;56604;48.652;9.194;2023-07-31T05:22:36;3.50;;;2.13;;
69410;SDS011;56604;48.652;9.194;2023-07-31T05:25:02;4.10;;;1.90;;
69410;SDS011;56604;48.652;9.194;2023-07-31T05:27:27;2.90;;;1.77;;
69410;SDS011;56604;48.652;9.194;2023-07-31T05:29:52;11.07;;;2.07;;
69410;SDS011;56604;48.652;9.194;2023-07-31T05:32:18;3.43;;;2.13;;
69410;SDS011;56604;48.652;9.194;2023-07-31T05:34:43;2.67;;;2.03;;
69410;SDS011;56604;48.652;9.194;2023-07-31T05:37:09;3.73;;;1.90;;
69410;SDS011;56604;48.652;9.194;2023-07-31T05:39:36;10.13;;;2.40;;
69410;SDS011;56604;48.652;9.194;2023-07-31T05:42:02;4.70;;;2.00;;
69410;SDS011;56604;48.652;9.194;2023-07-31T05:44:27;2.73;;;1.70;;
69410;SDS011;56604;48.652;9.194;2023-07-31T05:46:52;3.63;;;1.93;;
69410;SDS011;56604;48.652;9.194;2023-07-31T05:49:18;3.80;;;1.87;;
69410;SDS011;56604;48.652;9.194;2023-07-31T05:51:43;6.57;;;2.13;;
69410;SDS011;56604;48.652;9.194;2023-07-31T05:54:08;7.33;;;1.90;;
69410;SDS011;56604;48.652;9.194;2023-07-31T05:56:34;5.63;;;2.00;;
69410;SDS011;56604;48.652;9.194;2023-07-31T05:58:59;3.50;;;1.70;;
69410;SDS011;56604;48.652;9.194;2023-07-31T06:01:24;3.07;;;2.20;;
69410;SDS011;56604;48.652;9.194;2023-07-31T06:03:50;5.23;;;2.20;;
69410;SDS011;56604;48.652;9.194;2023-07-31T06:06:15;3.50;;;2.00;;
69410;SDS011;56604;48.652;9.194;2023-07-31T06:08:40;2.30;;;2.07;;
69410;SDS011;56604;48.652;9.194;2023-07-31T06:11:06;3.77;;;2.13;;
69410;SDS011;56604;48.652;9.194;2023-07-31T06:13:33;4.20;;;2.70;;
69410;SDS011;56604;48.652;9.194;2023-07-31T06:15:59;6.10;;;2.07;;
69410;SDS011;56604;48.652;9.194;2023-07-31T06:18:24;3.77;;;2.20;;
69410;SDS011;56604;48.652;9.194;2023-07-31T06:20:49;4.60;;;1.80;;
69410;SDS011;56604;48.652;9.194;2023-07-31T06:23:18;3.40;;;1.80;;
69410;SDS011;56604;48.652;9.194;2023-07-31T06:25:44;1.93;;;1.70;;
69410;SDS011;56604;48.652;9.194;2023-07-31T06:28:09;3.23;;;2.17;;
69410;SDS011;56604;48.652;9.194;2023-07-31T06:30:34;10.83;;;2.10;;
69410;SDS011;56604;48.652;9.194;2023-07-31T06:33:00;5.53;;;2.10;;
69410;SDS011;56604;48.652;9.194;2023-07-31T06:35:25;6.10;;;1.97;;
69410;SDS011;56604;48.652;9.194;2023-07-31T06:37:50;3.70;;;1.93;;
69410;SDS011;56604;48.652;9.194;2023-07-31T06:40:16;2.60;;;1.73;;
69410;SDS011;56604;48.652;9.194;2023-07-31T06:42:41;5.97;;;1.83;;
69410;SDS011;56604;48.652;9.194;2023-07-31T06:45:07;4.83;;;2.07;;
69410;SDS011;56604;48.652;9.194;2023-07-31T06:47:33;5.37;;;2.00;;
69410;SDS011;56604;48.652;9.194;2023-07-31T06:49:59;1.83;;;1.50;;
69410;SDS011;56604;48.652;9.194;2023-07-31T06:52:24;2.63;;;1.60;;
69410;SDS011;56604;48.652;9.194;2023-07-31T06:57:47;8.33;;;1.60;;
69410;SDS011;56604;48.652;9.194;2023-07-31T07:00:15;3.77;;;2.13;;
69410;SDS011;56604;48.652;9.194;2023-07-31T07:02:41;4.27;;;2.10;;
69410;SDS011;56604;48.652;9.194;2023-07-31T07:05:07;4.47;;;2.07;;
69410;SDS011;56604;48.652;9.194;2023-07-31T07:07:33;1.90;;;1.80;;
69410;SDS011;56604;48.652;9.194;2023-07-31T07:09:59;12.20;;;2.33;;
69410;SDS011;56604;48.652;9.194;2023-07-31T07:12:25;3.03;;;1.90;;
69410;SDS011;56604;48.652;9.194;2023-07-31T07:14:50;2.03;;;1.93;;
69410;SDS011;56604;48.652;9.194;2023-07-31T07:17:18;10.53;;;2.43;;
69410;SDS011;56604;48.652;9.194;2023-07-31T07:19:43;11.87;;;1.90;;
69410;SDS011;56604;48.652;9.194;2023-07-31T07:22:09;6.33;;;1.80;;
69410;SDS011;56604;48.652;9.194;2023-07-31T07:24:35;2.20;;;2.00;;
69410;SDS011;56604;48.652;9.194;2023-07-31T07:27:00;8.63;;;2.23;;
69410;SDS011;56604;48.652;9.194;2023-07-31T07:29:25;2.80;;;2.13;;
69410;SDS011;56604;48.652;9.194;2023-07-31T07:31:51;2.47;;;2.27;;
69410;SDS011;56604;48.652;9.194;2023-07-31T07:34:16;8.97;;;2.30;;
69410;SDS011;56604;48.652;9.194;2023-07-31T07:36:41;4.63;;;2.13;;
69410;SDS011;56604;48.652;9.194;2023-07-31T07:39:08;2.10;;;1.67;;
69410;SDS011;56604;48.652;9.194;2023-07-31T07:41:35;14.07;;;2.30;;
69410;SDS011;56604;48.652;9.194;2023-07-31T07:44:00;4.37;;;2.63;;
69410;SDS011;56604;48.652;9.194;2023-07-31T07:46:25;9.57;;;2.70;;
69410;SDS011;56604;48.652;9.194;2023-07-31T07:48:50;2.80;;;2.30;;
69410;SDS011;56604;48.652;9.194;2023-07-31T07:51:16;10.10;;;1.90;;
69410;SDS011;56604;48.652;9.194;2023-07-31T07:53:41;3.57;;;1.80;;
69410;SDS011;56604;48.652;9.194;2023-07-31T07:56:06;5.27;;;2.37;;
69410;SDS011;56604;48.652;9.194;2023-07-31T07:58:32;6.03;;;2.50;;
69410;SDS011;56604;48.652;9.194;2023-07-31T08:00:57;2.33;;;2.10;;
69410;SDS011;56604;48.652;9.194;2023-07-31T08:03:22;4.27;;;2.47;;
69410;SDS011;56604;48.652;9.194;2023-07-31T08:05:47;3.30;;;2.17;;
69410;SDS011;56604;48.652;9.194;2023-07-31T08:08:16;3.43;;;2.33;;
69410;SDS011;56604;48.652;9.194;2023-07-31T08:10:42;4.33;;;2.13;;
69410;SDS011;56604;48.652;9.194;2023-07-31T08:13:09;9.50;;;2.30;;
69410;SDS011;56604;48.652;9.194;2023-07-31T08:15:35;5.50;;;2.23;;
69410;SDS011;56604;48.652;9.194;2023-07-31T08:18:00;3.10;;;2.10;;
69410;SDS011;56604;48.652;9.194;2023-07-31T08:20:26;4.43;;;2.00;;
69410;SDS011;56604;48.652;9.194;2023-07-31T08:22:51;3.90;;;2.20;;
69410;SDS011;56604;48.652;9.194;2023-07-31T08:25:18;4.20;;;2.00;;
69410;SDS011;56604;48.652;9.194;2023-07-31T08:27:43;7.07;;;2.27;;
69410;SDS011;56604;48.652;9.194;2023-07-31T08:30:09;2.60;;;1.80;;
69410;SDS011;56604;48.652;9.194;2023-07-31T08:32:35;3.80;;;2.00;;
69410;SDS011;56604;48.652;9.194;2023-07-31T08:35:01;4.40;;;2.30;;
69410;SDS011;56604;48.652;9.194;2023-07-31T08:37:26;5.47;;;2.07;;
69410;SDS011;56604;48.652;9.194;2023-07-31T08:39:51;9.33;;;2.70;;
69410;SDS011;56604;48.652;9.194;2023-07-31T08:42:16;2.23;;;2.03;;
69410;SDS011;56604;48.652;9.194;2023-07-31T08:44:42;3.47;;;2.23;;
69410;SDS011;56604;48.652;9.194;2023-07-31T08:47:08;4.27;;;2.30;;
69410;SDS011;56604;48.652;9.194;2023-07-31T08:49:35;3.83;;;2.00;;
69410;SDS011;56604;48.652;9.194;2023-07-31T08:52:03;4.47;;;2.20;;
69410;SDS011;56604;48.652;9.194;2023-07-31T08:54:29;2.00;;;1.80;;
69410;SDS011;56604;48.652;9.194;2023-07-31T08:56:56;3.63;;;2.17;;
69410;SDS011;56604;48.652;9.194;2023-07-31T08:59:22;8.73;;;2.70;;
69410;SDS011;56604;48.652;9.194;2023-07-31T09:01:49;4.20;;;2.50;;
69410;SDS011;56604;48.652;9.194;2023-07-31T09:04:18;4.27;;;2.00;;
69410;SDS011;56604;48.652;9.194;2023-07-31T09:06:44;2.73;;;2.40;;
69410;SDS011;56604;48.652;9.194;2023-07-31T09:09:12;3.60;;;2.67;;
69410;SDS011;56604;48.652;9.194;2023-07-31T09:11:37;10.00;;;3.83;;
69410;SDS011;56604;48.652;9.194;2023-07-31T09:14:02;12.70;;;5.30;;
69410;SDS011;56604;48.652;9.194;2023-07-31T09:16:33;19.13;;;7.50;;
69410;SDS011;56604;48.652;9.194;2023-07-31T09:18:59;6.10;;;3.60;;
69410;SDS011;56604;48.652;9.194;2023-07-31T09:21:26;9.70;;;3.40;;
69410;SDS011;56604;48.652;9.194;2023-07-31T09:23:53;8.70;;;4.00;;
69410;SDS011;56604;48.652;9.194;2023-07-31T09:26:35;12.93;;;3.30;;
69410;SDS011;56604;48.652;9.194;2023-07-31T09:29:05;5.63;;;3.10;;
69410;SDS011;56604;48.652;9.194;2023-07-31T09:31:43;9.10;;;4.70;;
69410;SDS011;56604;48.652;9.194;2023-07-31T09:34:10;13.43;;;5.00;;
69410;SDS011;56604;48.652;9.194;2023-07-31T09:36:48;9.23;;;2.40;;
69410;SDS011;56604;48.652;9.194;2023-07-31T09:39:15;10.93;;;2.80;;
69410;SDS011;56604;48.652;9.194;2023-07-31T09:41:47;3.00;;;2.57;;
69410;SDS011;56604;48.652;9.194;2023-07-31T09:44:18;7.43;;;2.63;;
69410;SDS011;56604;48.652;9.194;2023-07-31T09:46:43;9.53;;;3.37;;
69410;SDS011;56604;48.652;9.194;2023-07-31T09:49:12;13.20;;;3.53;;
69410;SDS011;56604;48.652;9.194;2023-07-31T09:51:39;8.00;;;2.70;;
69410;SDS011;56604;48.652;9.194;2023-07-31T09:59:23;5.17;;;2.57;;
69410;SDS011;56604;48.652;9.194;2023-07-31T10:01:49;5.00;;;2.53;;
69410;SDS011;56604;48.652;9.194;2023-07-31T10:04:15;2.80;;;2.57;;
69410;SDS011;56604;48.652;9.194;2023-07-31T10:06:45;4.10;;;2.27;;
69410;SDS011;56604;48.652;9.194;2023-07-31T10:09:13;8.47;;;2.80;;
69410;SDS011;56604;48.652;9.194;2023-07-31T10:11:46;3.97;;;2.70;;
69410;SDS011;56604;48.652;9.194;2023-07-31T10:14:18;9.83;;;3.00;;
69410;SDS011;56604;48.652;9.194;2023-07-31T10:16:45;7.57;;;2.63;;
69410;SDS011;56604;48.652;9.194;2023-07-31T10:19:11;6.73;;;2.53;;
69410;SDS011;56604;48.652;9.194;2023-07-31T10:21:37;5.47;;;2.90;;
69410;SDS011;56604;48.652;9.194;2023-07-31T10:24:03;3.60;;;2.20;;
69410;SDS011;56604;48.652;9.194;2023-07-31T10:26:28;6.90;;;2.87;;
69410;SDS011;56604;48.652;9.194;2023-07-31T10:28:55;4.53;;;2.27;;
69410;SDS011;56604;48.652;9.194;2023-07-31T10:31:22;2.97;;;2.43;;
69410;SDS011;56604;48.652;9.194;2023-07-31T10:33:48;4.23;;;3.00;;
69410;SDS011;56604;48.652;9.194;2023-07-31T10:36:16;3.97;;;2.37;;
69410;SDS011;56604;48.652;9.194;2023-07-31T10:38:46;7.77;;;3.10;;
69410;SDS011;56604;48.652;9.194;2023-07-31T10:41:14;6.03;;;3.80;;
69410;SDS011;56604;48.652;9.194;2023-07-31T10:43:39;8.57;;;3.83;;
69410;SDS011;56604;48.652;9.194;2023-07-31T10:46:08;9.00;;;3.03;;
69410;SDS011;56604;48.652;9.194;2023-07-31T10:48:38;5.53;;;2.90;;
69410;SDS011;56604;48.652;9.194;2023-07-31T10:51:09;14.13;;;4.73;;
69410;SDS011;56604;48.652;9.194;2023-07-31T10:53:37;14.20;;;7.33;;
69410;SDS011;56604;48.652;9.194;2023-07-31T10:56:04;10.33;;;3.40;;
69410;SDS011;56604;48.652;9.194;2023-07-31T10:58:31;6.90;;;4.00;;
69410;SDS011;56604;48.652;9.194;2023-07-31T11:01:01;7.40;;;4.70;;
69410;SDS011;56604;48.652;9.194;2023-07-31T11:06:11;2.40;;;2.10;;
69410;SDS011;56604;48.652;9.194;2023-07-31T11:08:44;7.60;;;3.60;;
69410;SDS011;56604;48.652;9.194;2023-07-31T11:11:15;11.53;;;2.67;;
69410;SDS011;56604;48.652;9.194;2023-07-31T11:13:49;2.90;;;2.50;;
69410;SDS011;56604;48.652;9.194;2023-07-31T11:16:19;6.40;;;3.37;;
69410;SDS011;56604;48.652;9.194;2023-07-31T11:18:46;8.13;;;2.83;;
69410;SDS011;56604;48.652;9.194;2023-07-31T11:21:14;3.87;;;3.03;;
69410;SDS011;56604;48.652;9.194;2023-07-31T11:23:41;3.90;;;2.77;;
69410;SDS011;56604;48.652;9.194;2023-07-31T11:26:07;2.70;;;2.50;;
69410;SDS011;56604;48.652;9.194;2023-07-31T11:28:33;2.50;;;2.33;;
69410;SDS011;56604;48.652;9.194;2023-07-31T11:30:59;7.10;;;2.80;;
69410;SDS011;56604;48.652;9.194;2023-07-31T11:33:25;6.47;;;2.90;;
69410;SDS011;56604;48.652;9.194;2023-07-31T11:35:51;7.60;;;3.07;;
69410;SDS011;56604;48.652;9.194;2023-07-31T11:38:27;6.27;;;2.97;;
69410;SDS011;56604;48.652;9.194;2023-07-31T11:40:54;4.97;;;2.90;;
69410;SDS011;56604;48.652;9.194;2023-07-31T11:43:21;3.50;;;2.57;;
69410;SDS011;56604;48.652;9.194;2023-07-31T11:45:48;7.30;;;2.83;;
69410;SDS011;56604;48.652;9.194;2023-07-31T11:48:24;4.13;;;2.50;;
69410;SDS011;56604;48.652;9.194;2023-07-31T11:50:52;4.30;;;2.73;;
69410;SDS011;56604;48.652;9.194;2023-07-31T11:53:20;6.40;;;2.97;;
69410;SDS011;56604;48.652;9.194;2023-07-31T11:55:50;4.10;;;2.60;;
69410;SDS011;56604;48.652;9.194;2023-07-31T11:58:16;3.83;;;2.90;;
69410;SDS011;56604;48.652;9.194;2023-07-31T12:00:43;4.77;;;2.67;;
69410;SDS011;56604;48.652;9.194;2023-07-31T12:03:08;3.47;;;2.40;;
69410;SDS011;56604;48.652;9.194;2023-07-31T12:05:34;5.37;;;3.23;;
69410;SDS011;56604;48.652;9.194;2023-07-31T12:08:01;3.07;;;2.60;;
69410;SDS011;56604;48.652;9.194;2023-07-31T12:10:34;4.20;;;2.60;;
69410;SDS011;56604;48.652;9.194;2023-07-31T12:13:00;3.43;;;2.77;;
69410;SDS011;56604;48.652;9.194;2023-07-31T12:15:44;6.67;;;3.20;;
69410;SDS011;56604;48.652;9.194;2023-07-31T12:18:11;9.10;;;3.20;;
69410;SDS011;56604;48.652;9.194;2023-07-31T12:20:44;2.53;;;2.33;;
69410;SDS011;56604;48.652;9.194;2023-07-31T12:23:18;4.13;;;2.80;;
69410;SDS011;56604;48.652;9.194;2023-07-31T12:26:06;9.67;;;3.40;;
69410;SDS011;56604;48.652;9.194;2023-07-31T12:28:36;7.30;;;2.83;;
69410;SDS011;56604;48.652;9.194;2023-07-31T12:31:15;5.60;;;3.40;;
69410;SDS011;56604;48.652;9.194;2023-07-31T12:33:43;14.00;;;3.37;;
69410;SDS011;56604;48.652;9.194;2023-07-31T12:36:10;5.73;;;2.87;;
69410;SDS011;56604;48.652;9.194;2023-07-31T12:38:36;7.40;;;3.30;;
69410;SDS011;56604;48.652;9.194;2023-07-31T12:41:02;14.43;;;3.03;;
69410;SDS011;56604;48.652;9.194;2023-07-31T12:43:27;6.90;;;3.77;;
69410;SDS011;56604;48.652;9.194;2023-07-31T12:45:54;10.03;;;3.73;;
69410;SDS011;56604;48.652;9.194;2023-07-31T12:48:19;8.07;;;3.07;;
69410;SDS011;56604;48.652;9.194;2023-07-31T12:50:45;3.50;;;2.80;;
69410;SDS011;56604;48.652;9.194;2023-07-31T12:53:10;7.43;;;3.17;;
69410;SDS011;56604;48.652;9.194;2023-07-31T12:55:35;6.27;;;3.30;;
69410;SDS011;56604;48.652;9.194;2023-07-31T12:58:01;3.73;;;3.00;;
69410;SDS011;56604;48.652;9.194;2023-07-31T13:00:27;4.47;;;3.23;;
69410;SDS011;56604;48.652;9.194;2023-07-31T13:02:52;5.37;;;2.77;;
69410;SDS011;56604;48.652;9.194;2023-07-31T13:05:18;5.83;;;2.87;;
69410;SDS011;56604;48.652;9.194;2023-07-31T13:07:47;4.53;;;3.00;;
69410;SDS011;56604;48.652;9.194;2023-07-31T13:10:13;9.73;;;3.30;;
69410;SDS011;56604;48.652;9.194;2023-07-31T13:12:38;5.40;;;3.07;;
69410;SDS011;56604;48.652;9.194;2023-07-31T13:15:04;3.73;;;3.00;;
69410;SDS011;56604;48.652;9.194;2023-07-31T13:17:30;4.50;;;3.10;;
69410;SDS011;56604;48.652;9.194;2023-07-31T13:19:55;5.13;;;3.03;;
69410;SDS011;56604;48.652;9.194;2023-07-31T13:22:21;3.20;;;2.80;;
69410;SDS011;56604;48.652;9.194;2023-07-31T13:24:46;7.77;;;2.83;;
69410;SDS011;56604;48.652;9.194;2023-07-31T13:27:11;3.10;;;2.80;;
69410;SDS011;56604;48.652;9.194;2023-07-31T13:29:36;5.93;;;3.27;;
69410;SDS011;56604;48.652;9.194;2023-07-31T13:32:02;6.53;;;2.80;;
69410;SDS011;56604;48.652;9.194;2023-07-31T13:34:27;8.30;;;3.13;;
69410;SDS011;56604;48.652;9.194;2023-07-31T13:36:53;3.60;;;3.00;;
69410;SDS011;56604;48.652;9.194;2023-07-31T13:39:20;8.40;;;2.97;;
69410;SDS011;56604;48.652;9.194;2023-07-31T13:41:46;5.43;;;3.23;;
69410;SDS011;56604;48.652;9.194;2023-07-31T13:44:11;4.40;;;3.10;;
69410;SDS011;56604;48.652;9.194;2023-07-31T13:46:36;7.90;;;2.90;;
69410;SDS011;56604;48.652;9.194;2023-07-31T13:49:01;4.27;;;2.70;;
69410;SDS011;56604;48.652;9.194;2023-07-31T13:51:27;5.17;;;2.83;;
69410;SDS011;56604;48.652;9.194;2023-07-31T13:53:53;4.47;;;3.10;;
69410;SDS011;56604;48.652;9.194;2023-07-31T13:56:18;3.07;;;2.77;;
69410;SDS011;56604;48.652;9.194;2023-07-31T13:58:44;10.37;;;2.60;;
69410;SDS011;56604;48.652;9.194;2023-07-31T14:01:09;7.83;;;2.90;;
69410;SDS011;56604;48.652;9.194;2023-07-31T14:03:34;8.43;;;2.80;;
69410;SDS011;56604;48.652;9.194;2023-07-31T14:06:00;6.47;;;2.80;;
69410;SDS011;56604;48.652;9.194;2023-07-31T14:08:25;3.90;;;2.50;;
69410;SDS011;56604;48.652;9.194;2023-07-31T14:10:51;5.90;;;2.77;;
69410;SDS011;56604;48.652;9.194;2023-07-31T14:13:16;3.60;;;3.20;;
69410;SDS011;56604;48.652;9.194;2023-07-31T14:15:41;9.13;;;3.37;;
69410;SDS011;56604;48.652;9.194;2023-07-31T14:18:07;5.03;;;2.93;;
69410;SDS011;56604;48.652;9.194;2023-07-31T14:20:33;7.10;;;3.20;;
69410;SDS011;56604;48.652;9.194;2023-07-31T14:22:58;3.93;;;3.50;;
69410;SDS011;56604;48.652;9.194;2023-07-31T14:25:24;2.77;;;2.53;;
69410;SDS011;56604;48.652;9.194;2023-07-31T14:27:49;8.40;;;2.90;;
69410;SDS011;56604;48.652;9.194;2023-07-31T14:30:15;5.90;;;3.20;;
69410;SDS011;56604;48.652;9.194;2023-07-31T14:32:41;4.90;;;2.87;;
69410;SDS011;56604;48.652;9.194;2023-07-31T14:35:06;3.47;;;2.70;;
69410;SDS011;56604;48.652;9.194;2023-07-31T14:37:41;6.00;;;2.77;;
69410;SDS011;56604;48.652;9.194;2023-07-31T14:40:08;9.50;;;2.90;;
69410;SDS011;56604;48.652;9.194;2023-07-31T14:42:35;2.90;;;2.70;;
69410;SDS011;56604;48.652;9.194;2023-07-31T14:45:01;8.80;;;2.73;;
69410;SDS011;56604;48.652;9.194;2023-07-31T14:47:30;2.83;;;2.53;;
69410;SDS011;56604;48.652;9.194;2023-07-31T14:49:58;3.47;;;2.83;;
69410;SDS011;56604;48.652;9.194;2023-07-31T14:52:25;4.27;;;2.90;;
69410;SDS011;56604;48.652;9.194;2023-07-31T14:54:50;3.07;;;2.80;;
69410;SDS011;56604;48.652;9.194;2023-07-31T14:57:16;4.20;;;2.93;;
69410;SDS011;56604;48.652;9.194;2023-07-31T14:59:41;4.63;;;3.00;;
69410;SDS011;56604;48.652;9.194;2023-07-31T15:02:08;5.03;;;3.17;;
69410;SDS011;56604;48.652;9.194;2023-07-31T15:04:34;4.30;;;2.80;;